Time;durP1;ratioP1;P1;durP2;ratioP2;P2;SDS_P1;SDS_P2;PMS_P1;PMS_P2;Temp;Humidity;BMP_temperature;BMP_pressure;BME280_temperature;BME280_humidity;BME280_pressure;Samples;Min_cycle;Max_cycle;Signal;HPM_P1;HPM_P2
2022/03/25 00:02:16;;;;;;;62.07;35.93;;;;;;;6.40;63.38;102318.97;5129335;27;20268;-69
2022/03/25 00:04:43;;;;;;;58.97;35.27;;;;;;;6.33;63.38;102311.13;5135142;27;20221;-69
2022/03/25 00:07:10;;;;;;;62.73;35.77;;;;;;;6.31;63.57;102322.41;5135775;27;20182;-70
2022/03/25 00:09:36;;;;;;;68.27;35.73;;;;;;;6.29;63.52;102318.94;5135409;27;20187;-70
2022/03/25 00:12:04;;;;;;;60.17;37.27;;;;;;;6.21;63.63;102321.50;5122301;27;20667;-69
2022/03/25 00:14:31;;;;;;;62.70;36.83;;;;;;;6.18;63.72;102321.50;5114523;28;20370;-69
2022/03/25 00:16:57;;;;;;;67.73;38.53;;;;;;;6.18;63.91;102321.50;5124208;27;20183;-68
2022/03/25 00:19:25;;;;;;;64.90;35.53;;;;;;;6.16;63.44;102323.25;5134953;27;20193;-68
2022/03/25 00:21:52;;;;;;;60.67;33.60;;;;;;;6.11;63.39;102329.28;5135170;27;20659;-68
2022/03/25 00:24:19;;;;;;;61.93;34.47;;;;;;;6.11;63.30;102324.94;5118237;27;20226;-68
2022/03/25 00:26:46;;;;;;;59.00;34.20;;;;;;;6.07;63.35;102325.78;5114532;28;20696;-68
2022/03/25 00:29:13;;;;;;;61.53;34.27;;;;;;;6.03;63.44;102331.88;5114771;28;20180;-68
2022/03/25 00:31:39;;;;;;;63.97;33.30;;;;;;;5.98;63.76;102333.56;5119529;27;20690;-69
2022/03/25 00:34:07;;;;;;;67.37;32.63;;;;;;;5.95;63.75;102325.78;5134641;27;20296;-69
2022/03/25 00:36:35;;;;;;;57.87;34.40;;;;;;;5.89;64.03;102329.19;5134708;27;20645;-69
2022/03/25 00:39:03;;;;;;;66.03;34.23;;;;;;;5.87;64.46;102327.44;5134643;27;20229;-69
2022/03/25 00:41:36;;;;;;;59.73;35.53;;;;;;;5.78;64.71;102325.66;5111725;28;20584;-69
2022/03/25 00:44:07;;;;;;;66.77;36.07;;;;;;;5.72;65.10;102331.72;5095186;28;20249;-69
2022/03/25 00:46:36;;;;;;;60.47;33.07;;;;;;;5.64;65.30;102327.31;5098390;27;20695;-67
2022/03/25 00:49:04;;;;;;;59.53;32.50;;;;;;;5.67;65.44;102325.63;5134509;27;20674;-67
2022/03/25 00:51:31;;;;;;;53.20;31.47;;;;;;;5.57;65.98;102326.41;5134726;27;20267;-67
2022/03/25 00:53:58;;;;;;;59.47;34.03;;;;;;;5.50;65.91;102320.34;5106669;28;20642;-66
2022/03/25 00:56:24;;;;;;;63.30;34.17;;;;;;;5.54;66.47;102321.22;5129675;27;20658;-67
2022/03/25 00:58:51;;;;;;;58.63;32.17;;;;;;;5.44;66.83;102317.72;5114108;28;20200;-67
2022/03/25 01:01:19;;;;;;;67.47;33.33;;;;;;;5.43;66.89;102328.06;5096101;28;20197;-67
2022/03/25 01:03:45;;;;;;;55.33;33.03;;;;;;;5.36;67.18;102321.09;5132813;27;20577;-66
2022/03/25 01:06:12;;;;;;;58.17;32.23;;;;;;;5.34;67.59;102315.03;5134469;27;20287;-66
2022/03/25 01:08:39;;;;;;;48.07;31.03;;;;;;;5.28;67.75;102322.78;5134268;28;20180;-66
2022/03/25 01:11:06;;;;;;;49.50;31.20;;;;;;;5.28;67.58;102322.78;5134822;28;20185;-66
2022/03/25 01:13:33;;;;;;;56.57;34.13;;;;;;;5.17;67.86;102321.00;5116688;28;20250;-66
2022/03/25 01:16:05;;;;;;;57.00;31.73;;;;;;;5.08;67.95;102320.06;5113960;28;20209;-66
2022/03/25 01:18:32;;;;;;;61.77;31.93;;;;;;;5.09;68.34;102329.59;5111000;28;20206;-66
2022/03/25 01:20:59;;;;;;;57.70;32.00;;;;;;;5.02;68.48;102326.09;5103425;28;20276;-67
2022/03/25 01:23:27;;;;;;;56.80;32.87;;;;;;;4.96;68.74;102326.91;5134096;28;20279;-67
2022/03/25 01:25:53;;;;;;;60.07;35.53;;;;;;;5.00;68.97;102326.91;5115550;28;20584;-67
2022/03/25 01:28:21;;;;;;;63.70;34.03;;;;;;;4.95;69.37;102325.16;5098828;28;20188;-67
2022/03/25 01:30:47;;;;;;;57.43;34.50;;;;;;;4.83;69.48;102326.78;5113759;28;20658;-67
2022/03/25 01:33:14;;;;;;;61.77;32.83;;;;;;;4.84;69.86;102324.19;5134526;28;20243;-67
2022/03/25 01:35:41;;;;;;;70.33;35.63;;;;;;;4.87;69.40;102321.66;5134002;28;20259;-67
2022/03/25 01:38:09;;;;;;;62.53;36.00;;;;;;;4.73;70.24;102323.25;5134003;28;20609;-67
2022/03/25 01:40:35;;;;;;;61.60;36.90;;;;;;;4.75;70.20;102318.06;5115731;28;20598;-67
2022/03/25 01:43:02;;;;;;;66.37;36.13;;;;;;;4.62;70.86;102322.28;5111005;28;20578;-66
2022/03/25 01:45:36;;;;;;;52.63;32.47;;;;;;;4.57;70.73;102318.75;5113275;28;20570;-66
2022/03/25 01:48:09;;;;;;;74.47;35.87;;;;;;;4.52;71.18;102321.34;5131387;28;20185;-66
2022/03/25 01:50:37;;;;;;;68.67;38.60;;;;;;;4.50;71.30;102320.47;5134466;28;20626;-66
2022/03/25 01:53:10;;;;;;;65.57;36.90;;;;;;;4.45;71.39;102316.94;5133774;28;20253;-66
2022/03/25 01:55:38;;;;;;;67.37;36.77;;;;;;;4.41;71.53;102330.72;5134655;27;20192;-66
2022/03/25 01:58:06;;;;;;;62.97;36.40;;;;;;;4.48;71.80;102324.75;5103030;28;20185;-66
2022/03/25 02:00:34;;;;;;;66.47;36.47;;;;;;;4.41;71.87;102320.34;5098871;28;20291;-67
2022/03/25 02:03:00;;;;;;;71.53;39.03;;;;;;;4.30;72.36;102320.25;5132977;27;20216;-67
2022/03/25 02:05:27;;;;;;;68.63;37.47;;;;;;;4.33;72.41;102316.81;5117508;27;20220;-66
2022/03/25 02:07:54;;;;;;;77.60;38.40;;;;;;;4.34;72.73;102322.00;5116956;28;20185;-66
2022/03/25 02:10:22;;;;;;;73.90;36.93;;;;;;;4.30;73.10;102317.66;5098696;28;20189;-67
2022/03/25 02:12:49;;;;;;;71.13;36.13;;;;;;;4.30;73.62;102327.16;5116845;28;20694;-67
2022/03/25 02:15:17;;;;;;;64.50;35.73;;;;;;;4.19;74.11;102328.75;5098423;28;20651;-66
2022/03/25 02:17:43;;;;;;;65.23;34.80;;;;;;;4.14;73.94;102327.00;5098396;28;20186;-66
2022/03/25 02:20:12;;;;;;;63.10;36.40;;;;;;;4.21;74.17;102321.84;5098467;28;20193;-67
2022/03/25 02:22:40;;;;;;;69.17;35.93;;;;;;;4.16;75.32;102321.84;5098337;28;20593;-67
2022/03/25 02:25:11;;;;;;;58.57;36.23;;;;;;;4.17;75.61;102315.78;5098676;28;20213;-67
2022/03/25 02:27:39;;;;;;;70.93;35.77;;;;;;;4.17;75.61;102320.97;5098323;28;20189;-66
2022/03/25 02:30:07;;;;;;;61.03;35.27;;;;;;;4.14;76.09;102320.91;5098355;28;20669;-66
2022/03/25 02:32:35;;;;;;;65.70;38.43;;;;;;;4.10;76.40;102320.03;5097922;28;20189;-66
2022/03/25 02:35:03;;;;;;;65.10;36.67;;;;;;;4.08;76.67;102320.88;5116434;28;20679;-66
2022/03/25 02:37:29;;;;;;;63.20;35.90;;;;;;;4.10;77.01;102320.03;5098128;28;20196;-66
2022/03/25 02:39:56;;;;;;;80.47;37.33;;;;;;;4.05;77.42;102321.69;5097831;28;20189;-66
2022/03/25 02:42:22;;;;;;;69.80;36.33;;;;;;;4.02;77.17;102318.22;5098096;28;20189;-66
2022/03/25 02:44:49;;;;;;;70.30;37.43;;;;;;;3.99;77.04;102321.63;5097949;28;20721;-66
2022/03/25 02:47:16;;;;;;;76.53;37.80;;;;;;;3.94;77.27;102322.44;5097700;28;20200;-66
2022/03/25 02:49:43;;;;;;;67.17;36.40;;;;;;;3.95;77.24;102319.88;5116485;28;20189;-66
2022/03/25 02:52:09;;;;;;;70.90;37.20;;;;;;;3.92;77.24;102325.00;5116191;28;20193;-66
2022/03/25 02:54:36;;;;;;;56.67;32.83;;;;;;;3.77;77.86;102333.44;5116055;28;20266;-66
2022/03/25 02:57:03;;;;;;;59.40;31.53;;;;;;;3.73;77.93;102329.09;5115978;28;20192;-66
2022/03/25 02:59:29;;;;;;;53.33;31.70;;;;;;;3.75;78.10;102331.69;5116309;28;20736;-66
2022/03/25 03:01:56;;;;;;;58.37;29.60;;;;;;;3.78;78.23;102331.72;5115715;28;20548;-66
2022/03/25 03:04:23;;;;;;;48.50;29.13;;;;;;;3.73;78.34;102329.09;5115838;28;20262;-66
2022/03/25 03:06:49;;;;;;;54.10;32.70;;;;;;;3.74;78.31;102324.78;5115870;28;20254;-66
2022/03/25 03:09:16;;;;;;;65.67;32.50;;;;;;;3.71;78.75;102329.91;5115841;28;20705;-66
2022/03/25 03:11:43;;;;;;;63.83;33.90;;;;;;;3.67;78.81;102333.31;5115782;28;20573;-66
2022/03/25 03:14:09;;;;;;;61.63;32.57;;;;;;;3.61;78.87;102333.22;5116023;28;20611;-68
2022/03/25 03:16:36;;;;;;;55.40;31.53;;;;;;;3.55;79.34;102337.47;5115643;28;20253;-66
2022/03/25 03:19:07;;;;;;;61.93;33.50;;;;;;;3.46;79.29;102337.34;5115957;28;20169;-66
2022/03/25 03:21:34;;;;;;;62.43;34.57;;;;;;;3.47;79.33;102335.63;5115559;28;20191;-67
2022/03/25 03:24:00;;;;;;;70.43;34.83;;;;;;;3.47;79.22;102338.22;5115361;28;20244;-66
2022/03/25 03:26:27;;;;;;;57.27;32.70;;;;;;;3.46;79.15;102341.66;5115967;28;20202;-66
2022/03/25 03:28:53;;;;;;;55.83;32.23;;;;;;;3.40;79.33;102345.03;5115701;28;20677;-66
2022/03/25 03:31:20;;;;;;;58.23;32.03;;;;;;;3.38;79.48;102344.16;5115423;28;20196;-66
2022/03/25 03:33:46;;;;;;;64.73;31.33;;;;;;;3.41;79.49;102343.31;5114797;28;20287;-66
2022/03/25 03:36:13;;;;;;;56.57;32.70;;;;;;;3.44;79.40;102345.97;5115319;28;20670;-66
2022/03/25 03:38:39;;;;;;;53.90;32.23;;;;;;;3.43;79.26;102339.91;5115243;28;20326;-66
2022/03/25 03:41:06;;;;;;;57.20;32.70;;;;;;;3.37;79.31;102344.13;5115197;28;20252;-66
2022/03/25 03:43:32;;;;;;;53.13;31.17;;;;;;;3.34;79.38;102338.88;5114782;28;20281;-66
2022/03/25 03:45:59;;;;;;;54.83;32.20;;;;;;;3.30;79.54;102333.69;5115526;28;20199;-66
2022/03/25 03:48:26;;;;;;;51.07;31.13;;;;;;;3.22;79.64;102331.84;5114892;28;20196;-66
2022/03/25 03:50:52;;;;;;;67.97;33.80;;;;;;;3.20;80.00;102341.28;5114953;28;20186;-66
2022/03/25 03:53:18;;;;;;;66.93;36.93;;;;;;;3.18;80.08;102332.63;5114919;28;20260;-67
2022/03/25 03:55:45;;;;;;;64.97;34.73;;;;;;;3.12;80.28;102341.16;5113887;28;20195;-66
2022/03/25 03:58:11;;;;;;;79.57;37.93;;;;;;;3.04;81.13;102341.03;5112783;28;20189;-66
2022/03/25 04:00:38;;;;;;;77.97;35.87;;;;;;;3.11;81.38;102338.56;5114624;28;20189;-66
2022/03/25 04:03:06;;;;;;;69.57;36.43;;;;;;;3.08;81.79;102341.09;5114368;28;20698;-67
2022/03/25 04:05:33;;;;;;;64.53;35.47;;;;;;;3.10;81.54;102335.09;5114213;28;20210;-67
2022/03/25 04:08:00;;;;;;;61.53;34.33;;;;;;;3.06;82.10;102335.88;5114578;28;20256;-67
2022/03/25 04:10:26;;;;;;;56.10;32.83;;;;;;;3.03;82.56;102343.59;5114895;28;20664;-67
2022/03/25 04:12:53;;;;;;;64.73;33.83;;;;;;;3.00;82.83;102346.13;5114243;28;20251;-66
2022/03/25 04:15:20;;;;;;;72.93;35.37;;;;;;;3.02;82.72;102352.22;5114510;28;20193;-66
2022/03/25 04:17:47;;;;;;;70.10;35.63;;;;;;;3.04;82.88;102345.34;5118436;27;20263;-67
2022/03/25 04:20:14;;;;;;;72.43;37.67;;;;;;;3.06;83.21;102346.22;5135175;27;20591;-67
2022/03/25 04:22:45;;;;;;;64.67;36.33;;;;;;;2.99;83.54;102357.31;5134823;27;20185;-67
2022/03/25 04:25:13;;;;;;;66.47;34.93;;;;;;;2.99;83.31;102359.91;5124825;27;20197;-66
2022/03/25 04:28:06;;;;;;;72.43;34.40;;;;;;;2.97;83.60;102354.72;5114265;28;20193;-66
2022/03/25 04:30:35;;;;;;;67.10;31.57;;;;;;;2.91;83.25;102359.78;5110771;28;20204;-66
2022/03/25 04:33:02;;;;;;;49.83;29.90;;;;;;;2.91;83.13;102361.50;5119577;27;20209;-66
2022/03/25 04:35:31;;;;;;;73.17;41.50;;;;;;;2.87;83.07;102352.84;5134723;27;20186;-66
2022/03/25 04:38:00;;;;;;;100.53;50.33;;;;;;;2.80;83.44;102353.59;5134655;27;20228;-67
2022/03/25 04:40:29;;;;;;;95.30;47.47;;;;;;;2.79;83.41;102356.13;5134641;27;20180;-67
2022/03/25 04:42:58;;;;;;;86.73;41.87;;;;;;;2.88;83.27;102357.16;5133929;27;20583;-66
2022/03/25 04:45:25;;;;;;;73.83;38.23;;;;;;;2.84;83.42;102357.06;5116324;27;20226;-66
2022/03/25 04:47:53;;;;;;;70.23;37.63;;;;;;;2.80;83.47;102355.31;5132664;27;20188;-66
2022/03/25 04:50:20;;;;;;;73.87;39.47;;;;;;;2.81;83.78;102359.63;5113979;28;20251;-66
2022/03/25 04:52:47;;;;;;;86.70;44.47;;;;;;;2.81;84.24;102357.91;5114137;28;20204;-66
2022/03/25 04:55:16;;;;;;;85.90;43.47;;;;;;;2.84;84.24;102359.66;5117991;27;20550;-66
2022/03/25 04:57:43;;;;;;;80.67;41.50;;;;;;;2.78;84.35;102357.84;5135011;27;20170;-66
2022/03/25 05:00:10;;;;;;;74.77;38.53;;;;;;;2.75;84.39;102358.66;5134412;27;20186;-66
2022/03/25 05:02:37;;;;;;;74.20;38.27;;;;;;;2.69;84.44;102365.44;5134681;27;20242;-66
2022/03/25 05:05:05;;;;;;;72.03;37.20;;;;;;;2.70;84.56;102360.28;5115522;28;20241;-66
2022/03/25 05:07:31;;;;;;;61.93;34.63;;;;;;;2.71;84.79;102362.03;5113652;28;20540;-66
2022/03/25 05:10:02;;;;;;;53.67;31.60;;;;;;;2.69;84.87;102365.44;5080402;28;20284;-66
2022/03/25 05:12:30;;;;;;;77.60;36.10;;;;;;;2.65;84.97;102361.09;5113994;28;20174;-66
2022/03/25 05:14:56;;;;;;;84.47;36.13;;;;;;;2.62;85.29;102368.75;5130662;28;20217;-68
2022/03/25 05:17:22;;;;;;;81.47;35.40;;;;;;;2.65;85.14;102377.47;5134084;28;20184;-68
2022/03/25 05:19:49;;;;;;;70.50;36.40;;;;;;;2.64;85.34;102361.91;5119505;28;20178;-68
2022/03/25 05:22:15;;;;;;;61.33;33.90;;;;;;;2.61;85.41;102379.97;5113612;28;20189;-68
2022/03/25 05:24:42;;;;;;;68.57;35.67;;;;;;;2.59;85.38;102384.25;5113457;28;20212;-68
2022/03/25 05:27:08;;;;;;;86.10;39.23;;;;;;;2.57;84.82;102381.63;5131841;28;20265;-68
2022/03/25 05:29:35;;;;;;;79.07;37.93;;;;;;;2.58;84.75;102382.50;5135692;27;20188;-68
2022/03/25 05:32:01;;;;;;;79.80;38.13;;;;;;;2.47;84.85;102383.16;5120046;27;20189;-68
2022/03/25 05:34:28;;;;;;;83.13;37.27;;;;;;;2.47;84.95;102383.16;5128276;27;20217;-68
2022/03/25 05:36:54;;;;;;;69.80;34.27;;;;;;;2.45;85.20;102390.00;5117602;28;20177;-68
2022/03/25 05:39:21;;;;;;;71.30;35.07;;;;;;;2.44;85.11;102380.53;5117584;28;20672;-69
2022/03/25 05:41:47;;;;;;;69.30;34.97;;;;;;;2.45;85.09;102376.22;5117470;28;20194;-69
2022/03/25 05:44:14;;;;;;;80.07;36.60;;;;;;;2.44;85.24;102377.94;5124417;27;20212;-68
2022/03/25 05:46:40;;;;;;;73.70;35.83;;;;;;;2.49;85.24;102385.75;5138303;27;20689;-68
2022/03/25 05:49:07;;;;;;;71.97;36.77;;;;;;;2.43;85.23;102383.97;5133141;27;20218;-68
2022/03/25 05:51:34;;;;;;;71.40;36.27;;;;;;;2.43;85.19;102390.84;5117577;28;20237;-68
2022/03/25 05:54:01;;;;;;;70.10;36.40;;;;;;;2.40;85.15;102383.88;5117161;28;20305;-68
2022/03/25 05:56:27;;;;;;;76.37;35.60;;;;;;;2.45;84.81;102387.44;5126815;27;20257;-68
2022/03/25 05:58:54;;;;;;;79.17;37.43;;;;;;;2.45;85.05;102384.84;5137713;27;20727;-68
2022/03/25 06:01:21;;;;;;;82.27;37.27;;;;;;;2.44;84.95;102392.56;5137657;27;20722;-68
2022/03/25 06:03:47;;;;;;;66.47;35.20;;;;;;;2.49;85.05;102389.22;5137546;27;20606;-68
2022/03/25 06:06:14;;;;;;;76.70;38.13;;;;;;;2.56;85.39;102389.34;5116865;28;20205;-69
2022/03/25 06:08:40;;;;;;;61.50;34.47;;;;;;;2.62;85.41;102398.06;5116889;28;20189;-69
2022/03/25 06:11:07;;;;;;;83.33;36.17;;;;;;;2.70;85.57;102395.63;5116888;28;20596;-69
2022/03/25 06:13:33;;;;;;;81.37;36.30;;;;;;;2.83;85.51;102391.56;5116780;28;20259;-69
2022/03/25 06:16:00;;;;;;;63.53;34.17;;;;;;;2.84;85.70;102399.34;5116585;28;20196;-68
2022/03/25 06:18:26;;;;;;;94.10;36.43;;;;;;;3.01;86.04;102391.88;5116827;28;20206;-68
2022/03/25 06:20:53;;;;;;;71.87;36.73;;;;;;;3.11;86.04;102393.75;5116479;28;20711;-70
2022/03/25 06:23:19;;;;;;;64.47;34.37;;;;;;;3.20;86.14;102390.44;5116799;28;20206;-69
2022/03/25 06:25:46;;;;;;;71.40;35.83;;;;;;;3.30;86.38;102393.22;5116277;28;20192;-68
2022/03/25 06:28:13;;;;;;;73.10;36.17;;;;;;;3.42;86.24;102405.47;5116740;28;20236;-68
2022/03/25 06:30:40;;;;;;;71.30;36.90;;;;;;;3.51;87.13;102402.16;5116751;28;20185;-68
2022/03/25 06:33:09;;;;;;;82.97;38.20;;;;;;;3.72;86.44;102399.00;5116624;28;20245;-68
2022/03/25 06:35:36;;;;;;;94.47;36.30;;;;;;;3.96;86.12;102401.06;5098158;28;20189;-68
2022/03/25 06:38:04;;;;;;;78.03;38.73;;;;;;;4.20;84.81;102403.06;5116423;28;20294;-68
2022/03/25 06:40:31;;;;;;;85.00;37.97;;;;;;;4.28;84.73;102401.44;5115597;28;20560;-68
2022/03/25 06:42:58;;;;;;;77.70;39.30;;;;;;;4.37;85.19;102406.75;5116202;28;20212;-69
2022/03/25 06:45:25;;;;;;;83.97;39.03;;;;;;;4.50;84.71;102406.03;5115955;28;20723;-67
2022/03/25 06:47:52;;;;;;;96.40;39.33;;;;;;;4.72;84.95;102414.06;5116065;28;20682;-67
2022/03/25 06:50:21;;;;;;;90.83;42.13;;;;;;;4.92;83.81;102412.50;5116013;28;20196;-67
2022/03/25 06:52:48;;;;;;;83.93;40.33;;;;;;;5.12;83.33;102408.34;5116006;28;20196;-67
2022/03/25 06:55:16;;;;;;;91.37;43.30;;;;;;;5.27;83.15;102411.94;5115843;28;20200;-67
2022/03/25 06:57:47;;;;;;;93.80;41.50;;;;;;;5.45;82.41;102417.28;5115738;28;20185;-67
2022/03/25 07:00:15;;;;;;;82.10;42.43;;;;;;;5.66;81.73;102419.16;5116164;28;20188;-67
2022/03/25 07:02:43;;;;;;;97.40;43.70;;;;;;;5.78;81.65;102419.22;5115952;28;20192;-68
2022/03/25 07:05:11;;;;;;;102.53;43.13;;;;;;;5.96;82.11;102428.91;5115815;28;20617;-67
2022/03/25 07:07:40;;;;;;;89.67;44.93;;;;;;;6.17;80.60;102417.72;5115742;28;20201;-67
2022/03/25 07:10:09;;;;;;;93.47;44.13;;;;;;;6.29;80.45;102418.66;5115264;28;20189;-67
2022/03/25 07:12:37;;;;;;;91.83;43.60;;;;;;;6.42;80.50;102413.47;5115654;28;20190;-67
2022/03/25 07:15:05;;;;;;;74.83;42.03;;;;;;;6.56;79.72;102417.00;5115698;28;20524;-67
2022/03/25 07:17:31;;;;;;;85.50;42.90;;;;;;;6.65;78.82;102424.84;5114988;28;20191;-67
2022/03/25 07:19:58;;;;;;;88.10;44.70;;;;;;;6.78;78.91;102423.97;5115507;28;20189;-67
2022/03/25 07:22:24;;;;;;;100.50;42.53;;;;;;;6.99;77.44;102422.28;5115222;28;20197;-67
2022/03/25 07:24:51;;;;;;;77.97;42.63;;;;;;;7.00;77.11;102419.69;5115641;28;20209;-67
2022/03/25 07:27:17;;;;;;;95.77;43.20;;;;;;;7.11;76.10;102427.50;5115143;28;20206;-67
2022/03/25 07:29:44;;;;;;;88.40;43.40;;;;;;;7.22;76.56;102423.19;5115256;28;20182;-67
2022/03/25 07:32:11;;;;;;;88.53;44.03;;;;;;;7.50;74.95;102426.63;5115915;28;20241;-67
2022/03/25 07:34:38;;;;;;;81.70;42.53;;;;;;;7.64;73.86;102422.28;5114525;28;20209;-67
2022/03/25 07:37:04;;;;;;;95.33;43.40;;;;;;;7.87;73.09;102431.78;5114695;28;20186;-67
2022/03/25 07:39:31;;;;;;;79.90;40.60;;;;;;;7.97;72.69;102429.13;5114396;28;20194;-67
2022/03/25 07:41:58;;;;;;;80.67;41.13;;;;;;;8.10;71.27;102431.72;5114696;28;20721;-67
2022/03/25 07:44:24;;;;;;;74.83;42.27;;;;;;;8.26;71.55;102438.59;5115012;28;20576;-67
2022/03/25 07:46:51;;;;;;;79.40;42.10;;;;;;;8.45;69.32;102440.31;5114858;28;20281;-68
2022/03/25 07:49:17;;;;;;;79.97;39.97;;;;;;;8.57;69.79;102451.53;5115229;28;20620;-68
2022/03/25 07:51:44;;;;;;;77.93;42.57;;;;;;;8.64;69.04;102450.63;5114674;28;20197;-68
2022/03/25 07:54:11;;;;;;;78.27;42.13;;;;;;;8.74;68.20;102454.94;5114772;28;20666;-68
2022/03/25 07:56:38;;;;;;;76.30;41.90;;;;;;;8.90;68.92;102455.72;5114849;28;20251;-68
2022/03/25 07:59:04;;;;;;;79.37;39.70;;;;;;;8.98;67.96;102449.56;5114830;28;20231;-68
2022/03/25 08:01:31;;;;;;;82.43;40.43;;;;;;;9.15;66.76;102454.69;5114500;28;20200;-67
2022/03/25 08:03:57;;;;;;;76.43;39.20;;;;;;;9.26;65.91;102459.81;5115190;28;20212;-67
2022/03/25 08:06:24;;;;;;;73.27;39.30;;;;;;;9.35;65.48;102457.97;5114792;28;20185;-67
2022/03/25 08:08:50;;;;;;;77.80;40.43;;;;;;;9.42;65.17;102456.19;5114611;28;20243;-67
2022/03/25 08:11:20;;;;;;;77.67;39.53;;;;;;;9.48;64.99;102458.75;5114641;28;20192;-67
2022/03/25 08:13:47;;;;;;;74.43;40.03;;;;;;;9.62;65.42;102463.84;5127791;27;20702;-67
2022/03/25 08:16:16;;;;;;;72.73;40.33;;;;;;;9.69;65.15;102465.53;5135074;27;20184;-67
2022/03/25 08:18:43;;;;;;;76.77;39.27;;;;;;;9.83;64.44;102470.63;5120028;27;20219;-67
2022/03/25 08:21:11;;;;;;;77.43;41.03;;;;;;;9.85;64.38;102474.09;5117701;27;20215;-67
2022/03/25 08:29:09;;;;;;;73.67;40.30;;;;;;;10.30;62.75;102479.78;5133693;27;20227;-69
2022/03/25 08:31:47;;;;;;;80.10;38.37;;;;;;;10.60;63.30;102471.53;5132975;27;20543;-69
2022/03/25 08:34:15;;;;;;;74.50;39.70;;;;;;;10.85;62.63;102468.56;5134207;27;20210;-69
2022/03/25 08:36:47;;;;;;;65.60;36.57;;;;;;;10.97;60.28;102478.88;5124976;27;20198;-69
2022/03/25 08:39:15;;;;;;;69.70;36.53;;;;;;;11.14;59.57;102476.84;5114762;28;20198;-69
2022/03/25 08:41:42;;;;;;;63.57;35.70;;;;;;;11.25;59.53;102477.56;5123900;27;20691;-69
2022/03/25 08:44:09;;;;;;;69.37;38.00;;;;;;;11.45;59.30;102481.63;5134249;27;20211;-69
2022/03/25 08:46:36;;;;;;;77.33;38.03;;;;;;;11.59;58.89;102479.63;5134118;27;20195;-69
2022/03/25 08:49:10;;;;;;;80.53;36.80;;;;;;;11.74;58.15;102476.75;5134772;27;20264;-69
2022/03/25 08:51:36;;;;;;;72.07;35.67;;;;;;;11.95;57.91;102475.53;5127499;27;20189;-67
2022/03/25 08:54:03;;;;;;;65.13;36.17;;;;;;;12.20;56.98;102482.91;5113680;28;20209;-67
2022/03/25 08:56:30;;;;;;;67.13;35.60;;;;;;;12.37;57.38;102486.94;5113883;28;20248;-67
2022/03/25 08:58:58;;;;;;;67.67;35.53;;;;;;;12.55;56.28;102480.44;5114528;27;20221;-67
2022/03/25 09:01:25;;;;;;;66.13;34.83;;;;;;;12.83;55.74;102479.84;5128479;27;20197;-67
2022/03/25 09:03:52;;;;;;;58.77;32.13;;;;;;;12.97;54.41;102487.41;5112664;28;20205;-67
2022/03/25 09:06:19;;;;;;;58.13;32.17;;;;;;;13.17;52.97;102479.94;5113399;28;20200;-67
2022/03/25 09:08:46;;;;;;;61.40;31.60;;;;;;;13.33;53.86;102480.44;5114130;28;20212;-67
2022/03/25 09:11:12;;;;;;;57.20;32.93;;;;;;;13.42;50.86;102488.13;5113992;28;20185;-68
2022/03/25 09:13:40;;;;;;;52.63;30.93;;;;;;;13.54;51.82;102489.59;5113345;28;20223;-67
2022/03/25 09:16:07;;;;;;;64.63;32.37;;;;;;;13.57;51.05;102489.50;5113695;28;20187;-68
2022/03/25 09:18:34;;;;;;;50.27;30.10;;;;;;;13.78;50.73;102486.31;5114097;28;20187;-68
2022/03/25 09:21:00;;;;;;;49.43;28.70;;;;;;;13.87;49.56;102494.00;5113524;28;20185;-68
2022/03/25 09:23:27;;;;;;;52.47;29.50;;;;;;;14.00;49.57;102489.22;5113240;28;20219;-68
2022/03/25 09:25:54;;;;;;;52.00;28.57;;;;;;;14.24;49.89;102492.97;5113507;28;20189;-68
2022/03/25 09:28:20;;;;;;;44.70;25.63;;;;;;;14.51;48.33;102502.78;5113468;28;20201;-68
2022/03/25 09:30:47;;;;;;;44.50;26.63;;;;;;;14.81;47.13;102497.50;5113778;28;20193;-68
2022/03/25 09:33:13;;;;;;;54.33;29.27;;;;;;;15.00;48.71;102500.41;5113227;28;20212;-68
2022/03/25 09:35:42;;;;;;;52.67;27.13;;;;;;;15.28;45.54;102489.84;5113746;28;20196;-68
2022/03/25 09:38:09;;;;;;;45.30;25.67;;;;;;;15.41;44.51;102496.44;5113310;28;20570;-68
2022/03/25 09:40:35;;;;;;;42.23;26.00;;;;;;;15.59;42.24;102487.94;5113420;28;20189;-68
2022/03/25 09:43:02;;;;;;;46.10;25.60;;;;;;;15.63;41.84;102496.63;5113356;28;20201;-68
2022/03/25 09:45:30;;;;;;;42.97;25.47;;;;;;;15.68;41.67;102497.34;5113728;28;20529;-68
2022/03/25 09:47:57;;;;;;;38.90;23.47;;;;;;;15.77;41.92;102494.38;5113278;28;20609;-68
2022/03/25 09:50:27;;;;;;;43.47;22.80;;;;;;;15.81;41.59;102490.72;5113346;28;20200;-68
2022/03/25 09:52:54;;;;;;;42.00;23.80;;;;;;;16.18;40.83;102492.91;5112966;28;20189;-68
2022/03/25 09:55:37;;;;;;;45.90;23.43;;;;;;;15.92;40.58;102485.91;5113281;28;20250;-70
2022/03/25 09:58:04;;;;;;;35.60;21.23;;;;;;;15.74;37.08;102494.50;5113788;28;20219;-70
2022/03/25 10:00:31;;;;;;;48.43;24.10;;;;;;;15.87;40.98;102494.94;5113238;28;20714;-69
2022/03/25 10:02:58;;;;;;;32.63;22.43;;;;;;;16.09;39.31;102490.63;5113219;28;20209;-68
2022/03/25 10:05:25;;;;;;;35.27;22.30;;;;;;;16.36;42.07;102493.16;5113209;28;20266;-68
2022/03/25 10:07:56;;;;;;;41.13;24.40;;;;;;;16.45;38.12;102495.47;5112975;28;20202;-69
2022/03/25 10:10:29;;;;;;;28.47;20.40;;;;;;;16.55;37.29;102495.97;5113442;28;20169;-69
2022/03/25 10:13:02;;;;;;;36.83;21.87;;;;;;;16.51;37.36;102490.81;5113639;28;20527;-69
2022/03/25 10:15:32;;;;;;;32.00;21.30;;;;;;;16.69;37.70;102485.75;5113351;28;20220;-69
2022/03/25 10:18:01;;;;;;;38.93;21.20;;;;;;;16.72;38.54;102490.97;5116949;28;20585;-69
2022/03/25 10:20:32;;;;;;;36.03;20.77;;;;;;;16.62;38.19;102490.41;5116494;28;20211;-69
2022/03/25 10:23:01;;;;;;;38.17;22.10;;;;;;;16.75;39.51;102485.53;5116389;28;20702;-69
2022/03/25 10:25:42;;;;;;;34.77;21.70;;;;;;;16.56;39.02;102484.47;5116972;28;20231;-69
2022/03/25 10:28:29;;;;;;;35.20;21.67;;;;;;;16.57;40.47;102481.78;5116803;28;20193;-69
2022/03/25 10:31:07;;;;;;;39.57;21.47;;;;;;;16.67;38.62;102483.16;5116950;28;20211;-71
2022/03/25 10:33:59;;;;;;;41.20;21.63;;;;;;;16.78;38.74;102474.81;5116774;28;20241;-71
2022/03/25 10:36:26;;;;;;;35.53;22.20;;;;;;;16.69;38.86;102470.75;5116977;28;20177;-71
2022/03/25 10:39:00;;;;;;;30.37;21.57;;;;;;;16.78;38.81;102473.03;5116193;28;20258;-70
2022/03/25 10:41:39;;;;;;;36.50;21.33;;;;;;;17.13;39.09;102470.78;5116341;28;20673;-71
2022/03/25 10:44:08;;;;;;;39.40;22.17;;;;;;;17.26;38.93;102471.16;5116324;28;20543;-71
2022/03/25 10:46:34;;;;;;;34.30;20.07;;;;;;;17.26;39.37;102472.00;5116322;28;20185;-71
2022/03/25 10:49:05;;;;;;;33.03;20.00;;;;;;;17.46;39.83;102472.97;5115786;28;20201;-71
2022/03/25 10:51:36;;;;;;;38.10;19.90;;;;;;;17.72;37.87;102472.75;5115966;28;20246;-71
2022/03/25 10:54:07;;;;;;;32.93;20.83;;;;;;;17.32;38.14;102468.25;5115396;27;20213;-70
2022/03/25 10:56:47;;;;;;;35.73;21.17;;;;;;;17.33;37.44;102473.47;5121486;27;20196;-70
2022/03/25 10:59:31;;;;;;;35.90;19.57;;;;;;;17.21;37.18;102470.47;5117472;27;20253;-71
2022/03/25 11:02:02;;;;;;;36.87;20.53;;;;;;;17.23;37.02;102466.84;5110290;27;20189;-71
2022/03/25 11:04:29;;;;;;;38.87;20.93;;;;;;;17.39;38.41;102468.84;5128323;27;20571;-71
2022/03/25 11:07:01;;;;;;;39.40;21.93;;;;;;;17.74;37.99;102467.41;5116476;28;20189;-71
2022/03/25 11:09:28;;;;;;;35.33;20.03;;;;;;;17.48;36.68;102463.16;5116180;27;20177;-71
2022/03/25 11:11:56;;;;;;;36.00;19.77;;;;;;;17.66;37.57;102465.03;5116237;28;20185;-71
2022/03/25 11:14:23;;;;;;;32.13;20.47;;;;;;;17.74;37.31;102467.41;5116243;28;20209;-71
2022/03/25 11:16:55;;;;;;;28.00;19.47;;;;;;;17.40;38.95;102474.09;5115662;28;20188;-71
2022/03/25 11:19:23;;;;;;;32.77;20.93;;;;;;;17.69;37.69;102470.19;5125240;27;20234;-71
2022/03/25 11:21:51;;;;;;;37.60;21.57;;;;;;;17.77;37.75;102460.16;5134397;27;20654;-72
2022/03/25 11:24:31;;;;;;;28.27;18.43;;;;;;;17.45;38.36;102468.59;5130672;27;20235;-71